Time;durP1;ratioP1;P1;durP2;ratioP2;P2;SDS_P1;SDS_P2;PMS_P1;PMS_P2;Temp;Humidity;BMP_temperature;BMP_pressure;BME280_temperature;BME280_humidity;BME280_pressure;Samples;Min_cycle;Max_cycle;Signal;HPM_P1;HPM_P2
2022/04/17 00:00:28;;;;;;;11.27;8.27;;;5.60;99.90;;;;;;5053297;28;20202;-63
2022/04/17 00:02:55;;;;;;;10.63;8.30;;;5.60;99.90;;;;;;5054227;28;20174;-63
2022/04/17 00:05:21;;;;;;;12.73;8.80;;;5.60;99.90;;;;;;5053582;28;20161;-63
2022/04/17 00:07:47;;;;;;;12.07;8.80;;;5.60;99.90;;;;;;5053646;28;20620;-63
2022/04/17 00:10:13;;;;;;;12.17;8.50;;;5.60;99.90;;;;;;5054213;28;20586;-63
2022/04/17 00:12:40;;;;;;;13.40;8.93;;;5.60;99.90;;;;;;5054480;28;20182;-63
2022/04/17 00:15:07;;;;;;;12.30;9.03;;;5.60;99.90;;;;;;5059460;28;20216;-63
2022/04/17 00:17:33;;;;;;;14.20;8.83;;;5.50;99.90;;;;;;5059666;28;20182;-63
2022/04/17 00:19:59;;;;;;;14.70;9.03;;;5.50;99.90;;;;;;5059503;28;20198;-63
2022/04/17 00:22:26;;;;;;;13.30;8.77;;;5.50;99.90;;;;;;5058770;28;20170;-63
2022/04/17 00:24:52;;;;;;;14.10;9.10;;;5.50;99.90;;;;;;5058174;28;20174;-63
2022/04/17 00:27:18;;;;;;;13.03;8.77;;;5.50;99.90;;;;;;5057731;28;20228;-63
2022/04/17 00:29:44;;;;;;;12.20;9.20;;;5.60;99.90;;;;;;5057380;28;20522;-63
2022/04/17 00:32:11;;;;;;;15.00;9.53;;;5.60;99.90;;;;;;5057741;28;20240;-63
2022/04/17 00:34:37;;;;;;;10.47;8.27;;;5.60;99.90;;;;;;5057335;28;20702;-63
2022/04/17 00:37:04;;;;;;;11.77;8.60;;;5.60;99.90;;;;;;5057788;28;20169;-64
2022/04/17 00:39:30;;;;;;;13.87;8.87;;;5.60;99.90;;;;;;5057068;28;20182;-62
2022/04/17 00:41:56;;;;;;;14.07;9.50;;;5.40;99.90;;;;;;5057239;28;20210;-63
2022/04/17 00:44:22;;;;;;;9.70;7.87;;;5.40;99.90;;;;;;5056874;28;20682;-63
2022/04/17 00:46:48;;;;;;;11.83;8.13;;;5.30;99.90;;;;;;5057019;28;20215;-63
2022/04/17 00:49:14;;;;;;;14.10;8.90;;;5.30;99.90;;;;;;5056918;28;20639;-63
2022/04/17 00:51:43;;;;;;;13.40;8.43;;;5.40;99.90;;;;;;5056855;28;20234;-63
2022/04/17 00:54:12;;;;;;;11.93;8.97;;;5.30;99.90;;;;;;5056916;28;20220;-63
2022/04/17 00:56:38;;;;;;;13.87;8.20;;;5.20;99.90;;;;;;5057028;28;20179;-63
2022/04/17 00:59:06;;;;;;;11.50;8.60;;;5.20;99.90;;;;;;5056780;28;20178;-62
2022/04/17 01:01:33;;;;;;;11.77;8.57;;;5.20;99.90;;;;;;5056495;28;20202;-63
2022/04/17 01:04:03;;;;;;;11.77;8.63;;;5.10;99.90;;;;;;5056692;28;20241;-63
2022/04/17 01:06:31;;;;;;;10.97;8.40;;;5.10;99.90;;;;;;5056865;28;20182;-63
2022/04/17 01:08:58;;;;;;;12.83;8.43;;;5.10;99.90;;;;;;5056509;28;20192;-63
2022/04/17 01:11:25;;;;;;;13.30;8.60;;;5.00;99.90;;;;;;5056522;28;20225;-63
2022/04/17 01:13:52;;;;;;;13.57;8.93;;;5.10;99.90;;;;;;5056977;28;20260;-63
2022/04/17 01:16:22;;;;;;;14.70;9.50;;;5.10;99.90;;;;;;5056074;28;20253;-63
2022/04/17 01:19:13;;;;;;;14.93;9.87;;;5.10;99.90;;;;;;5056505;28;20163;-63
2022/04/17 01:21:40;;;;;;;11.40;9.33;;;5.10;99.90;;;;;;5056339;28;20663;-63
2022/04/17 01:26:57;;;;;;;11.43;9.10;;;5.00;99.90;;;;;;5056496;28;20542;-64
2022/04/17 01:29:34;;;;;;;13.10;8.90;;;4.90;99.90;;;;;;5055981;28;20158;-63
2022/04/17 01:32:02;;;;;;;13.10;9.67;;;4.80;99.90;;;;;;5056088;28;20167;-63
2022/04/17 01:34:28;;;;;;;13.73;9.33;;;4.70;99.90;;;;;;5055941;28;20265;-63
2022/04/17 01:36:54;;;;;;;18.73;10.13;;;4.70;99.90;;;;;;5056126;28;20186;-63
2022/04/17 01:39:21;;;;;;;12.87;9.03;;;4.70;99.90;;;;;;5055827;28;20528;-63
2022/04/17 01:41:48;;;;;;;14.53;9.77;;;4.60;99.90;;;;;;5055705;28;20224;-63
2022/04/17 01:44:16;;;;;;;15.57;10.57;;;4.60;99.90;;;;;;5055578;28;20547;-62
2022/04/17 01:46:43;;;;;;;18.53;10.13;;;4.60;99.90;;;;;;5055742;28;20166;-63
2022/04/17 01:49:08;;;;;;;12.93;9.73;;;4.60;99.90;;;;;;5055793;28;20174;-63
2022/04/17 01:51:38;;;;;;;18.10;10.80;;;4.60;99.90;;;;;;5055480;28;20736;-63
2022/04/17 01:54:09;;;;;;;17.07;11.77;;;4.50;99.90;;;;;;5056305;28;20197;-63
2022/04/17 01:56:36;;;;;;;18.13;10.37;;;4.40;99.90;;;;;;5056180;28;20159;-63
2022/04/17 01:59:03;;;;;;;16.43;10.10;;;4.30;99.90;;;;;;5055612;28;20170;-64
2022/04/17 02:01:28;;;;;;;13.10;10.40;;;4.20;99.90;;;;;;5053913;28;20209;-62
2022/04/17 02:03:54;;;;;;;16.30;9.97;;;4.00;99.90;;;;;;5055818;28;20174;-63
2022/04/17 02:06:20;;;;;;;16.07;10.80;;;3.80;99.90;;;;;;5055526;28;20560;-62
2022/04/17 02:08:46;;;;;;;13.97;10.43;;;3.80;99.90;;;;;;5055370;28;20683;-63
2022/04/17 02:11:12;;;;;;;13.30;9.93;;;3.90;99.90;;;;;;5055177;28;20213;-63
2022/04/17 02:13:38;;;;;;;15.13;10.00;;;3.90;99.90;;;;;;5055631;28;20527;-63
2022/04/17 02:16:05;;;;;;;13.40;10.53;;;3.90;99.90;;;;;;5053709;28;20174;-63
2022/04/17 02:18:31;;;;;;;14.30;10.90;;;3.70;99.90;;;;;;5055317;28;20175;-62
2022/04/17 02:20:56;;;;;;;16.13;9.77;;;3.40;99.90;;;;;;5055121;28;20606;-63
2022/04/17 02:23:22;;;;;;;16.67;10.50;;;3.20;99.90;;;;;;5055094;28;20202;-63
2022/04/17 02:25:48;;;;;;;18.43;10.50;;;3.20;99.90;;;;;;5055097;28;20175;-63
2022/04/17 02:28:14;;;;;;;15.87;10.47;;;3.20;99.90;;;;;;5055064;28;20643;-63
2022/04/17 02:30:40;;;;;;;16.50;10.83;;;3.20;99.90;;;;;;5054680;28;20210;-64
2022/04/17 02:33:06;;;;;;;13.60;10.33;;;3.20;99.90;;;;;;5053691;28;20182;-63
2022/04/17 02:35:32;;;;;;;14.80;10.43;;;3.10;99.90;;;;;;5055707;28;20236;-63
2022/04/17 02:37:58;;;;;;;12.97;10.47;;;3.10;99.90;;;;;;5054442;28;20257;-63
2022/04/17 02:40:23;;;;;;;13.57;10.57;;;3.20;99.90;;;;;;5055190;28;20206;-63
2022/04/17 02:42:49;;;;;;;14.53;10.67;;;3.20;99.90;;;;;;5054021;28;20642;-63
2022/04/17 02:45:16;;;;;;;13.13;10.33;;;3.20;99.90;;;;;;5054803;28;20193;-63
2022/04/17 02:47:42;;;;;;;13.50;9.77;;;3.20;99.90;;;;;;5053810;28;20183;-63
2022/04/17 02:50:12;;;;;;;18.97;10.67;;;3.30;99.90;;;;;;5053415;28;20726;-63
2022/04/17 02:52:38;;;;;;;12.83;10.23;;;3.20;99.90;;;;;;5055017;28;20666;-63
2022/04/17 02:55:05;;;;;;;12.47;9.77;;;3.10;99.90;;;;;;5054443;28;20209;-63
2022/04/17 02:57:30;;;;;;;14.37;10.70;;;3.10;99.90;;;;;;5054736;28;20232;-62
2022/04/17 02:59:57;;;;;;;16.63;11.03;;;3.10;99.90;;;;;;5054317;28;20190;-62
2022/04/17 03:07:52;;;;;;;14.07;10.37;;;2.90;99.90;;;;;;5054599;28;20681;-63
2022/04/17 03:10:18;;;;;;;16.77;10.90;;;2.90;99.90;;;;;;5054156;28;20214;-63
2022/04/17 03:12:45;;;;;;;19.53;10.93;;;2.90;99.90;;;;;;5052846;28;20171;-62
2022/04/17 03:15:11;;;;;;;16.07;10.87;;;2.90;99.90;;;;;;5053819;28;20253;-62
2022/04/17 03:17:37;;;;;;;11.53;9.53;;;2.90;99.90;;;;;;5054171;28;20224;-63
2022/04/17 03:20:04;;;;;;;12.90;10.23;;;2.80;99.90;;;;;;5053944;28;20190;-63
2022/04/17 03:22:32;;;;;;;12.93;10.43;;;2.70;99.90;;;;;;5054006;28;20178;-63
2022/04/17 03:25:00;;;;;;;16.03;10.40;;;2.70;99.90;;;;;;5054311;28;20154;-63
2022/04/17 03:27:26;;;;;;;13.40;10.23;;;2.70;99.90;;;;;;5052648;28;20643;-63
2022/04/17 03:29:52;;;;;;;14.33;10.10;;;2.60;99.90;;;;;;5053587;28;20194;-63
2022/04/17 03:32:18;;;;;;;17.37;11.63;;;2.60;99.90;;;;;;5052647;28;20689;-63
2022/04/17 03:34:44;;;;;;;13.97;9.97;;;2.60;99.90;;;;;;5053825;28;20170;-63
2022/04/17 03:37:10;;;;;;;16.97;11.43;;;2.70;99.90;;;;;;5053794;28;20591;-63
2022/04/17 03:39:35;;;;;;;15.20;10.80;;;2.60;99.90;;;;;;5053519;28;20171;-63
2022/04/17 03:42:01;;;;;;;13.93;10.90;;;2.70;99.90;;;;;;5053654;28;20200;-63
2022/04/17 03:44:27;;;;;;;13.17;10.70;;;2.60;99.90;;;;;;5053854;28;20170;-63
2022/04/17 03:46:52;;;;;;;15.63;10.90;;;2.50;99.90;;;;;;5053355;28;20178;-63
2022/04/17 03:49:18;;;;;;;15.47;10.47;;;2.50;99.90;;;;;;5054023;28;20226;-63
2022/04/17 03:51:44;;;;;;;15.03;11.10;;;2.50;99.90;;;;;;5053461;28;20194;-63
2022/04/17 03:54:10;;;;;;;14.90;10.77;;;2.60;99.90;;;;;;5053536;28;20174;-63
2022/04/17 03:56:36;;;;;;;13.20;11.00;;;2.50;99.90;;;;;;5053822;28;20170;-63
2022/04/17 03:59:01;;;;;;;13.33;10.20;;;2.50;99.90;;;;;;5053380;28;20220;-63
2022/04/17 04:01:28;;;;;;;12.43;10.13;;;2.50;99.90;;;;;;5053002;28;20198;-63
2022/04/17 04:03:54;;;;;;;14.47;10.67;;;2.50;99.90;;;;;;5052134;28;20666;-62
2022/04/17 04:06:21;;;;;;;11.50;10.17;;;2.50;99.90;;;;;;5052092;28;20175;-64
2022/04/17 04:08:50;;;;;;;13.90;10.60;;;2.50;99.90;;;;;;5053615;28;20253;-63
2022/04/17 04:11:17;;;;;;;12.67;10.40;;;2.40;99.90;;;;;;5053221;28;20237;-64
2022/04/17 04:13:43;;;;;;;13.80;10.23;;;2.30;99.90;;;;;;5053603;28;20197;-63
2022/04/17 04:16:09;;;;;;;15.17;11.93;;;2.20;99.90;;;;;;5051816;28;20227;-64
2022/04/17 04:18:35;;;;;;;13.07;10.23;;;2.30;99.90;;;;;;5051976;28;20207;-63
2022/04/17 04:21:01;;;;;;;14.00;10.07;;;2.30;99.90;;;;;;5051772;28;20202;-62
2022/04/17 04:23:30;;;;;;;11.77;10.10;;;2.20;99.90;;;;;;5053045;28;20174;-63
2022/04/17 04:25:56;;;;;;;14.23;11.07;;;2.20;99.90;;;;;;5053241;28;20178;-63
2022/04/17 04:28:34;;;;;;;14.00;10.37;;;2.10;99.90;;;;;;5051862;28;20545;-63
2022/04/17 04:31:09;;;;;;;16.30;10.93;;;2.10;99.90;;;;;;5053153;28;20739;-63
2022/04/17 04:33:36;;;;;;;15.60;11.40;;;2.10;99.90;;;;;;5053065;28;20181;-63
2022/04/17 04:36:04;;;;;;;13.00;10.77;;;2.00;99.90;;;;;;5051957;28;20201;-63
2022/04/17 04:38:33;;;;;;;17.40;11.07;;;2.00;99.90;;;;;;5053195;28;20233;-63
2022/04/17 04:41:00;;;;;;;17.90;10.53;;;1.90;99.90;;;;;;5053213;28;20198;-63
2022/04/17 04:43:27;;;;;;;15.97;11.40;;;2.00;99.90;;;;;;5053277;28;20178;-63
2022/04/17 04:46:08;;;;;;;20.40;11.80;;;2.00;99.90;;;;;;5052934;28;20205;-63
2022/04/17 04:51:23;;;;;;;12.97;10.87;;;2.10;99.90;;;;;;5052841;28;20201;-63
2022/04/17 04:53:49;;;;;;;13.77;10.63;;;2.10;99.90;;;;;;5052944;28;20178;-63
2022/04/17 04:56:16;;;;;;;13.97;10.23;;;2.20;99.90;;;;;;5051649;28;20228;-63
2022/04/17 04:58:43;;;;;;;15.73;10.53;;;2.20;99.90;;;;;;5051642;28;20178;-63
2022/04/17 05:01:08;;;;;;;15.20;11.40;;;2.20;99.90;;;;;;5055147;28;20198;-63
2022/04/17 05:03:35;;;;;;;15.50;10.80;;;2.20;99.90;;;;;;5055451;28;20174;-63
2022/04/17 05:06:01;;;;;;;14.30;10.70;;;2.20;99.90;;;;;;5055579;28;20576;-63
2022/04/17 05:08:27;;;;;;;13.33;10.57;;;2.20;99.90;;;;;;5056562;28;20589;-63
2022/04/17 05:10:53;;;;;;;12.37;10.30;;;2.30;99.90;;;;;;5056428;28;20213;-63
2022/04/17 05:13:19;;;;;;;11.97;9.53;;;2.40;99.90;;;;;;5055358;28;20179;-63
2022/04/17 05:15:45;;;;;;;13.03;10.10;;;2.40;99.90;;;;;;5056387;28;20185;-64
2022/04/17 05:18:10;;;;;;;12.93;10.03;;;2.50;99.90;;;;;;5055597;28;20174;-63
2022/04/17 05:20:36;;;;;;;15.50;10.30;;;2.60;99.90;;;;;;5056597;28;20210;-63
2022/04/17 05:23:18;;;;;;;14.07;9.57;;;2.80;99.90;;;;;;5056344;28;20260;-63
2022/04/17 05:25:51;;;;;;;16.07;9.70;;;2.80;99.90;;;;;;5056500;28;20165;-64
2022/04/17 05:28:17;;;;;;;13.27;10.03;;;2.80;99.90;;;;;;5054915;28;20592;-64
2022/04/17 05:30:44;;;;;;;11.87;9.40;;;2.80;99.90;;;;;;5055953;28;20198;-63
2022/04/17 05:33:10;;;;;;;13.20;9.67;;;2.90;99.90;;;;;;5056256;28;20241;-63
2022/04/17 05:35:37;;;;;;;12.03;9.73;;;3.00;99.90;;;;;;5056485;28;20252;-64
2022/04/17 05:38:04;;;;;;;12.40;9.73;;;3.10;99.90;;;;;;5056941;28;20178;-63
2022/04/17 05:40:43;;;;;;;11.60;9.27;;;3.10;99.90;;;;;;5056666;28;20277;-63
2022/04/17 05:43:10;;;;;;;14.57;10.20;;;3.20;99.90;;;;;;5057130;28;20167;-62
2022/04/17 05:45:38;;;;;;;13.60;10.33;;;3.30;99.90;;;;;;5057534;28;20169;-63
2022/04/17 05:48:05;;;;;;;14.93;10.93;;;3.50;99.90;;;;;;5056769;28;20194;-63
2022/04/17 05:50:31;;;;;;;16.17;10.90;;;3.60;99.90;;;;;;5056193;28;20655;-62
2022/04/17 05:52:57;;;;;;;13.73;10.80;;;3.80;99.90;;;;;;5056020;28;20175;-63
2022/04/17 05:55:23;;;;;;;11.23;9.77;;;3.90;99.90;;;;;;5054658;28;20175;-63
2022/04/17 05:57:49;;;;;;;12.90;9.93;;;4.10;99.90;;;;;;5056126;28;20308;-63
2022/04/17 06:00:16;;;;;;;14.40;10.97;;;4.10;99.90;;;;;;5055769;28;20290;-63
2022/04/17 06:02:44;;;;;;;14.30;10.53;;;4.20;99.90;;;;;;5055218;28;20243;-63
2022/04/17 06:05:11;;;;;;;17.37;10.73;;;4.40;99.90;;;;;;5055541;28;20171;-62
2022/04/17 06:07:36;;;;;;;14.37;10.70;;;4.50;99.90;;;;;;5054316;28;20267;-63
2022/04/17 06:10:04;;;;;;;13.57;10.67;;;4.60;99.90;;;;;;5053992;28;20686;-63
2022/04/17 06:12:30;;;;;;;15.80;10.87;;;4.70;99.90;;;;;;5054050;28;20190;-63
2022/04/17 06:14:56;;;;;;;12.13;9.70;;;4.90;99.90;;;;;;5055472;28;20171;-63
2022/04/17 06:17:21;;;;;;;14.03;10.30;;;5.10;99.90;;;;;;5055016;28;20170;-64
2022/04/17 06:19:47;;;;;;;14.00;9.87;;;5.20;99.90;;;;;;5055163;28;20196;-64
2022/04/17 06:22:13;;;;;;;13.13;9.90;;;5.30;99.90;;;;;;5055451;28;20291;-63
2022/04/17 06:24:38;;;;;;;11.00;9.43;;;5.50;99.90;;;;;;5053799;28;20213;-63
2022/04/17 06:27:04;;;;;;;20.63;10.20;;;5.60;99.90;;;;;;5055637;28;20166;-63
2022/04/17 06:29:30;;;;;;;15.77;9.53;;;5.80;99.90;;;;;;5055201;28;20631;-63
2022/04/17 06:31:56;;;;;;;12.23;9.13;;;6.00;99.90;;;;;;5054872;28;20181;-65
2022/04/17 06:34:21;;;;;;;11.53;8.50;;;6.10;99.90;;;;;;5055006;28;20236;-66
2022/04/17 06:36:47;;;;;;;10.27;8.37;;;6.30;99.90;;;;;;5055267;28;20169;-64
2022/04/17 06:39:13;;;;;;;9.57;7.90;;;6.50;99.90;;;;;;5053947;28;20178;-63
2022/04/17 06:41:39;;;;;;;11.73;8.17;;;6.70;99.90;;;;;;5055586;28;20206;-63
2022/04/17 06:44:05;;;;;;;11.07;8.30;;;6.90;99.90;;;;;;5054817;28;20262;-64
2022/04/17 06:46:32;;;;;;;10.90;8.00;;;7.00;99.90;;;;;;5054717;28;20181;-64
2022/04/17 06:48:58;;;;;;;9.20;7.97;;;7.20;99.90;;;;;;5054693;28;20178;-63
2022/04/17 06:51:25;;;;;;;10.73;8.43;;;7.40;99.90;;;;;;5054671;28;20194;-63
2022/04/17 06:53:52;;;;;;;10.07;8.07;;;7.60;99.90;;;;;;5054836;28;20174;-63
2022/04/17 06:56:21;;;;;;;10.93;8.53;;;7.80;99.90;;;;;;5054578;28;20166;-63
2022/04/17 06:58:47;;;;;;;10.40;7.67;;;8.00;99.90;;;;;;5053066;28;20665;-63
2022/04/17 07:01:17;;;;;;;9.70;8.10;;;8.10;99.90;;;;;;5052775;28;20206;-63
2022/04/17 07:03:46;;;;;;;10.43;7.80;;;8.20;99.90;;;;;;5054360;28;20146;-62
2022/04/17 07:06:12;;;;;;;9.90;8.13;;;8.30;99.90;;;;;;5054544;28;20202;-62
2022/04/17 07:08:38;;;;;;;7.60;6.80;;;8.40;99.90;;;;;;5054235;28;20288;-63
2022/04/17 07:11:04;;;;;;;7.00;6.30;;;8.50;99.90;;;;;;5053930;28;20239;-64
2022/04/17 07:13:31;;;;;;;7.53;6.70;;;8.60;99.90;;;;;;5052929;28;20194;-63
2022/04/17 07:15:57;;;;;;;6.73;6.10;;;8.80;99.90;;;;;;5054234;28;20186;-63
2022/04/17 07:18:23;;;;;;;8.00;6.77;;;8.90;99.90;;;;;;5054306;28;20184;-63
2022/04/17 07:20:48;;;;;;;7.43;6.27;;;9.00;99.90;;;;;;5052712;28;20285;-63
2022/04/17 07:23:14;;;;;;;7.10;6.17;;;9.10;99.90;;;;;;5053844;28;20556;-63
2022/04/17 07:25:41;;;;;;;9.40;6.90;;;9.20;99.90;;;;;;5053754;28;20174;-63
2022/04/17 07:28:12;;;;;;;6.90;6.20;;;9.40;99.90;;;;;;5053985;28;20229;-63
2022/04/17 07:30:38;;;;;;;6.83;6.13;;;9.50;99.90;;;;;;5052283;28;20198;-63
2022/04/17 07:33:04;;;;;;;8.33;6.73;;;9.60;99.90;;;;;;5052388;28;20178;-64
2022/04/17 07:35:30;;;;;;;6.97;5.60;;;9.70;99.90;;;;;;5054311;28;20509;-63
2022/04/17 07:38:04;;;;;;;6.70;5.50;;;9.80;99.90;;;;;;5053746;28;20262;-63
2022/04/17 07:40:35;;;;;;;6.10;5.53;;;9.90;99.90;;;;;;5054386;28;20592;-63
2022/04/17 07:43:03;;;;;;;9.17;5.17;;;10.00;99.90;;;;;;5054325;28;20575;-63
2022/04/17 07:45:30;;;;;;;6.20;5.47;;;10.10;99.90;;;;;;5053518;28;20257;-65
2022/04/17 07:47:56;;;;;;;6.07;5.20;;;10.20;99.90;;;;;;5053655;28;20171;-64
2022/04/17 07:50:27;;;;;;;6.57;5.47;;;10.30;99.90;;;;;;5053360;28;20685;-64
2022/04/17 07:52:53;;;;;;;7.20;5.03;;;10.50;99.90;;;;;;5053897;28;20155;-63
2022/04/17 07:55:21;;;;;;;8.73;5.50;;;10.60;99.90;;;;;;5053375;28;20181;-63
2022/04/17 08:00:24;;;;;;;5.43;4.80;;;10.90;99.90;;;;;;5053364;28;20247;-66
2022/04/17 08:03:07;;;;;;;6.57;4.93;;;11.10;99.90;;;;;;5053404;28;20647;-68
2022/04/17 08:05:38;;;;;;;4.77;4.37;;;11.20;99.90;;;;;;5054740;28;20204;-65
2022/04/17 08:08:09;;;;;;;4.77;4.20;;;11.30;99.90;;;;;;5052490;28;20227;-63
2022/04/17 08:10:35;;;;;;;4.93;4.07;;;11.40;99.90;;;;;;5053405;28;20217;-62
2022/04/17 08:13:01;;;;;;;4.60;4.20;;;11.50;99.90;;;;;;5053497;28;20282;-62
2022/04/17 08:15:27;;;;;;;5.60;4.30;;;11.60;99.90;;;;;;5052902;28;20174;-62
2022/04/17 08:17:52;;;;;;;4.97;4.30;;;11.70;99.90;;;;;;5053629;28;20627;-62
2022/04/17 08:20:19;;;;;;;4.47;4.03;;;11.90;99.90;;;;;;5053043;28;20186;-63
2022/04/17 08:22:46;;;;;;;4.20;3.90;;;12.20;99.90;;;;;;5053081;28;20252;-62
2022/04/17 08:25:12;;;;;;;4.15;3.80;;;13.10;99.90;;;;;;5053182;28;20174;-62
2022/04/17 08:27:48;;;;;;;5.47;3.60;;;14.50;99.90;;;;;;5052935;28;20158;-62
2022/04/17 08:30:22;;;;;;;3.58;3.25;;;16.10;99.90;;;;;;5053293;28;20591;-62
2022/04/17 08:32:49;;;;;;;2.80;2.60;;;17.40;99.90;;;;;;5052829;28;20190;-63
2022/04/17 08:35:14;;;;;;;3.28;2.63;;;18.60;99.90;;;;;;5054139;28;20232;-63
2022/04/17 08:37:40;;;;;;;3.25;2.50;;;18.90;99.90;;;;;;5057239;28;20178;-63
2022/04/17 08:40:06;;;;;;;2.50;2.30;;;19.60;99.90;;;;;;5057034;28;20209;-63
2022/04/17 08:42:32;;;;;;;5.03;2.42;;;19.90;99.90;;;;;;5057472;28;20190;-63
2022/04/17 08:44:58;;;;;;;2.47;2.28;;;20.00;99.90;;;;;;5057708;28;20197;-64
2022/04/17 08:47:27;;;;;;;3.47;2.22;;;20.00;99.90;;;;;;5055342;28;20170;-61
2022/04/17 08:49:55;;;;;;;6.00;2.30;;;20.90;99.90;;;;;;5055491;28;20564;-61
2022/04/17 08:52:22;;;;;;;3.85;2.35;;;21.00;99.90;;;;;;5056999;28;20177;-61
2022/04/17 08:54:53;;;;;;;4.95;2.58;;;20.80;99.90;;;;;;5058826;28;20159;-62
2022/04/17 08:57:21;;;;;;;3.08;2.05;;;20.90;99.90;;;;;;5055512;28;20647;-62
2022/04/17 08:59:47;;;;;;;3.63;2.30;;;21.00;99.90;;;;;;5055382;28;20167;-62
2022/04/17 09:02:13;;;;;;;2.97;2.20;;;20.90;99.90;;;;;;5056228;28;20264;-62
2022/04/17 09:04:42;;;;;;;2.50;2.10;;;20.60;99.90;;;;;;5055583;28;20190;-62
2022/04/17 09:07:10;;;;;;;2.83;2.08;;;20.40;99.90;;;;;;5056570;28;20573;-62
2022/04/17 09:09:47;;;;;;;2.42;2.20;;;20.30;99.90;;;;;;5056403;28;20193;-62
2022/04/17 09:12:18;;;;;;;3.65;2.60;;;20.40;99.90;;;;;;5056665;28;20166;-64
2022/04/17 09:14:44;;;;;;;2.47;2.28;;;20.40;99.90;;;;;;5056449;28;20266;-62
2022/04/17 09:17:12;;;;;;;2.50;2.25;;;20.00;99.90;;;;;;5056214;28;20634;-62
2022/04/17 09:19:39;;;;;;;2.50;2.30;;;19.80;99.90;;;;;;5056049;28;20639;-61
2022/04/17 09:22:06;;;;;;;2.42;2.22;;;19.80;99.90;;;;;;5056134;28;20190;-64
2022/04/17 09:24:38;;;;;;;5.18;2.45;;;19.50;99.90;;;;;;5056215;28;20175;-62
2022/04/17 09:27:05;;;;;;;4.25;2.60;;;19.30;99.90;;;;;;5056631;28;20200;-62
2022/04/17 09:29:36;;;;;;;2.75;2.55;;;19.20;99.90;;;;;;5054575;28;20179;-62
2022/04/17 09:32:08;;;;;;;3.42;2.75;;;18.90;99.90;;;;;;5055714;28;20192;-62
2022/04/17 09:34:50;;;;;;;3.78;2.63;;;18.70;99.90;;;;;;5056039;28;20166;-62
2022/04/17 09:37:20;;;;;;;3.17;2.60;;;18.30;99.90;;;;;;5056298;28;20162;-63
2022/04/17 09:39:48;;;;;;;2.67;2.40;;;18.00;99.90;;;;;;5056158;28;20179;-63
2022/04/17 09:42:21;;;;;;;3.22;2.67;;;17.60;99.90;;;;;;5056066;28;20643;-63
2022/04/17 09:44:49;;;;;;;3.50;3.20;;;17.30;99.90;;;;;;5055830;28;20181;-63
2022/04/17 09:47:20;;;;;;;3.08;2.72;;;17.30;99.90;;;;;;5054952;28;20177;-63
2022/04/17 09:49:53;;;;;;;3.72;2.85;;;17.10;99.90;;;;;;5055747;28;20186;-63
2022/04/17 09:52:19;;;;;;;3.55;2.80;;;16.80;99.90;;;;;;5056263;28;20221;-63
2022/04/17 09:54:45;;;;;;;3.08;2.50;;;16.90;99.90;;;;;;5055594;28;20166;-64
2022/04/17 09:57:31;;;;;;;4.18;2.70;;;17.00;99.90;;;;;;5055573;28;20248;-63
2022/04/17 10:00:30;;;;;;;3.97;2.67;;;17.00;99.90;;;;;;5055483;28;20204;-63
2022/04/17 10:02:56;;;;;;;2.83;2.60;;;16.90;99.90;;;;;;5042517;28;20194;-64
2022/04/17 10:05:22;;;;;;;2.90;2.70;;;17.10;99.90;;;;;;5055459;28;20185;-64
2022/04/17 10:07:49;;;;;;;2.80;2.60;;;17.00;99.90;;;;;;5055976;28;20518;-64
2022/04/17 10:10:17;;;;;;;3.45;3.10;;;17.00;99.90;;;;;;5055216;28;20233;-67
2022/04/17 10:12:46;;;;;;;3.10;2.80;;;17.10;99.90;;;;;;5055601;28;20155;-62
2022/04/17 10:15:12;;;;;;;2.72;2.42;;;17.10;99.90;;;;;;5055756;28;20174;-62
2022/04/17 10:17:41;;;;;;;3.20;2.90;;;17.30;99.90;;;;;;5055811;28;20674;-63
2022/04/17 10:20:11;;;;;;;3.70;2.85;;;17.30;99.90;;;;;;5056989;28;20243;-62
2022/04/17 10:22:39;;;;;;;3.58;2.67;;;17.30;99.90;;;;;;5054662;28;20289;-61
2022/04/17 10:25:09;;;;;;;2.90;2.63;;;17.20;99.90;;;;;;5055943;28;20158;-60
2022/04/17 10:28:02;;;;;;;3.00;2.80;;;17.10;99.90;;;;;;5055336;28;20159;-61
2022/04/17 10:30:37;;;;;;;3.30;3.00;;;17.10;99.90;;;;;;5054566;28;20207;-60
2022/04/17 10:33:24;;;;;;;3.30;2.88;;;17.20;99.90;;;;;;5053737;28;20534;-60
2022/04/17 10:36:11;;;;;;;5.18;2.70;;;17.20;99.90;;;;;;5054747;28;20159;-60
2022/04/17 10:38:49;;;;;;;3.28;2.97;;;17.30;99.90;;;;;;5054771;28;20174;-61
2022/04/17 10:41:16;;;;;;;3.83;2.92;;;17.50;99.90;;;;;;5054647;28;20667;-61
2022/04/17 10:43:47;;;;;;;4.20;2.85;;;17.50;99.90;;;;;;5054954;28;20572;-61
2022/04/17 10:46:20;;;;;;;3.17;2.92;;;17.60;99.90;;;;;;5054386;28;20177;-61
2022/04/17 10:48:57;;;;;;;6.18;3.60;;;17.60;99.90;;;;;;5054648;28;20166;-61
2022/04/17 10:51:31;;;;;;;3.65;3.20;;;17.60;99.90;;;;;;5054790;28;20197;-61
2022/04/17 10:54:04;;;;;;;4.15;3.10;;;17.80;99.90;;;;;;5055081;28;20231;-63
2022/04/17 10:56:40;;;;;;;4.72;3.75;;;18.00;99.90;;;;;;5054608;28;20166;-63
2022/04/17 10:59:17;;;;;;;5.10;3.55;;;17.90;99.90;;;;;;5054607;28;20634;-63
2022/04/17 11:01:43;;;;;;;4.25;3.70;;;18.10;99.90;;;;;;5055357;28;20202;-63
2022/04/17 11:04:27;;;;;;;5.65;3.97;;;18.40;99.90;;;;;;5055173;28;20277;-63
2022/04/17 11:06:53;;;;;;;4.80;3.63;;;18.50;99.90;;;;;;5055829;28;20623;-64
2022/04/17 11:09:24;;;;;;;6.43;3.80;;;18.60;99.90;;;;;;5055492;28;20257;-63
2022/04/17 11:11:51;;;;;;;6.70;3.90;;;18.50;99.90;;;;;;5055122;28;20347;-68
2022/04/17 11:14:19;;;;;;;5.05;3.90;;;18.50;99.90;;;;;;5054457;28;20178;-68
2022/04/17 11:16:46;;;;;;;5.88;4.30;;;18.50;99.90;;;;;;5054155;28;20260;-63
2022/04/17 11:19:14;;;;;;;7.97;4.40;;;18.70;99.90;;;;;;5054251;28;20171;-63
2022/04/17 11:21:45;;;;;;;6.72;4.90;;;18.90;99.90;;;;;;5052729;28;20302;-63
2022/04/17 11:24:11;;;;;;;7.28;5.10;;;18.90;99.90;;;;;;5052919;28;20174;-63
2022/04/17 11:26:52;;;;;;;8.90;5.95;;;19.00;99.90;;;;;;5054286;28;20197;-63
2022/04/17 11:29:48;;;;;;;10.55;5.13;;;18.90;99.90;;;;;;5054098;28;20170;-63
2022/04/17 11:32:16;;;;;;;8.00;4.88;;;19.00;99.90;;;;;;5054040;28;20197;-63
2022/04/17 11:34:44;;;;;;;8.02;4.90;;;19.00;99.90;;;;;;5054548;28;20166;-63
2022/04/17 11:37:10;;;;;;;7.13;5.10;;;19.40;99.90;;;;;;5054267;28;20643;-64
2022/04/17 11:39:38;;;;;;;5.68;4.40;;;19.70;99.90;;;;;;5054002;28;20186;-63
2022/04/17 11:42:06;;;;;;;9.27;5.68;;;19.90;99.90;;;;;;5052504;28;20202;-63
2022/04/17 11:44:33;;;;;;;6.15;4.53;;;19.90;99.90;;;;;;5053743;28;20619;-63
2022/04/17 11:46:59;;;;;;;6.97;4.70;;;20.20;99.90;;;;;;5053567;28;20175;-63
2022/04/17 11:49:25;;;;;;;5.60;4.50;;;20.20;99.90;;;;;;5053838;28;20229;-63
2022/04/17 11:51:50;;;;;;;7.95;4.55;;;20.30;99.90;;;;;;5052958;28;20202;-64
2022/04/17 11:54:34;;;;;;;6.80;4.47;;;20.40;99.90;;;;;;5053870;28;20178;-63
2022/04/17 11:57:00;;;;;;;7.13;5.32;;;20.70;99.90;;;;;;5053589;28;20186;-63
2022/04/17 11:59:26;;;;;;;5.70;4.40;;;20.70;99.90;;;;;;5053850;28;20179;-64
2022/04/17 12:02:16;;;;;;;7.03;5.10;;;20.80;99.90;;;;;;5053207;28;20213;-63
2022/04/17 12:04:43;;;;;;;6.20;4.65;;;21.10;99.90;;;;;;5053493;28;20181;-63
2022/04/17 12:07:14;;;;;;;7.18;4.90;;;21.50;99.90;;;;;;5053649;28;20193;-63
2022/04/17 12:09:40;;;;;;;11.15;4.65;;;21.80;99.90;;;;;;5053009;28;20632;-63
2022/04/17 12:12:17;;;;;;;6.38;4.30;;;21.80;99.90;;;;;;5053390;28;20617;-63
2022/04/17 12:14:43;;;;;;;5.68;4.43;;;21.80;99.90;;;;;;5053574;28;20162;-63
2022/04/17 12:17:09;;;;;;;6.90;4.65;;;22.00;99.90;;;;;;5053266;28;20658;-63
2022/04/17 12:19:36;;;;;;;8.00;4.55;;;22.20;99.90;;;;;;5053109;28;20186;-63
2022/04/17 12:22:12;;;;;;;7.40;4.45;;;22.00;99.90;;;;;;5051872;28;20199;-63
2022/04/17 12:24:37;;;;;;;5.07;3.70;;;22.20;99.90;;;;;;5053527;28;20181;-63
2022/04/17 12:27:05;;;;;;;7.68;4.53;;;22.30;99.90;;;;;;5053755;28;20651;-63
2022/04/17 12:29:32;;;;;;;6.07;4.03;;;22.30;99.90;;;;;;5053450;28;20205;-64
2022/04/17 12:31:57;;;;;;;5.45;3.80;;;22.30;99.90;;;;;;5053529;28;20567;-62
2022/04/17 12:34:24;;;;;;;6.95;3.72;;;22.50;99.90;;;;;;5053757;28;20177;-63
2022/04/17 12:36:49;;;;;;;5.25;3.78;;;22.40;99.90;;;;;;5053377;28;20181;-63
2022/04/17 12:39:16;;;;;;;6.38;4.07;;;22.60;99.90;;;;;;5053053;28;20603;-63
2022/04/17 12:41:51;;;;;;;6.47;3.75;;;22.90;99.90;;;;;;5052828;28;20248;-63
2022/04/17 12:44:32;;;;;;;6.50;4.10;;;23.20;99.90;;;;;;5053317;28;20155;-63
2022/04/17 12:47:13;;;;;;;8.23;4.18;;;23.50;99.90;;;;;;5052731;28;20155;-63
2022/04/17 12:49:39;;;;;;;6.00;4.05;;;23.50;99.90;;;;;;5053249;28;20147;-62
2022/04/17 12:52:05;;;;;;;4.72;3.70;;;23.40;99.90;;;;;;5052994;28;20186;-63
2022/04/17 12:54:33;;;;;;;5.15;3.80;;;23.60;99.90;;;;;;5052820;28;20636;-63
2022/04/17 12:57:08;;;;;;;6.32;3.80;;;23.60;99.90;;;;;;5053345;28;20174;-63
2022/04/17 12:59:47;;;;;;;5.38;3.42;;;23.50;99.90;;;;;;5051715;28;20213;-63
2022/04/17 13:02:18;;;;;;;4.63;3.22;;;23.70;99.90;;;;;;5053283;28;20187;-63
2022/04/17 13:04:46;;;;;;;3.45;2.88;;;23.90;99.90;;;;;;5053171;28;20187;-64